createdAt,value
2024-03-16T00:00:52.583Z,10.21
2024-03-16T00:02:24.313Z,10.27
2024-03-16T00:03:56.065Z,10.14
2024-03-16T00:05:28.782Z,9.93
2024-03-16T00:07:00.614Z,9.80
2024-03-16T00:08:32.413Z,9.85
2024-03-16T00:10:04.563Z,9.99
2024-03-16T00:11:37.019Z,10.05
2024-03-16T00:13:08.864Z,10.05
2024-03-16T00:14:40.596Z,10.01
2024-03-16T00:16:12.885Z,10.14
2024-03-16T00:17:44.640Z,10.20
2024-03-16T00:19:16.470Z,10.06
2024-03-16T00:20:48.158Z,9.97
2024-03-16T00:22:19.902Z,10.06
2024-03-16T00:23:51.655Z,9.83
2024-03-16T00:25:23.533Z,9.85
2024-03-16T00:26:55.409Z,9.84
2024-03-16T00:28:27.132Z,9.86
2024-03-16T00:29:58.803Z,9.93
2024-03-16T00:31:30.496Z,9.94
2024-03-16T00:33:03.041Z,9.84
2024-03-16T00:34:34.709Z,10.03
2024-03-16T00:36:06.584Z,9.77
2024-03-16T00:37:38.235Z,9.73
2024-03-16T00:39:16.528Z,9.83
2024-03-16T00:40:48.543Z,9.52
2024-03-16T00:42:21.240Z,9.70
2024-03-16T00:43:53.561Z,9.73
2024-03-16T00:45:25.337Z,9.57
2024-03-16T00:46:57.038Z,9.58
2024-03-16T00:48:28.747Z,9.65
2024-03-16T00:50:00.503Z,9.62
2024-03-16T00:51:34.204Z,9.58
2024-03-16T00:53:05.933Z,9.37
2024-03-16T00:54:39.522Z,9.43
2024-03-16T00:56:11.259Z,9.60
2024-03-16T00:57:42.992Z,9.62
2024-03-16T00:59:15.278Z,9.53
2024-03-16T01:00:46.948Z,9.63
2024-03-16T01:02:18.973Z,9.60
2024-03-16T01:03:50.709Z,9.50
2024-03-16T01:05:23.189Z,9.58
2024-03-16T01:06:54.951Z,9.65
2024-03-16T01:08:26.653Z,9.63
2024-03-16T01:09:58.435Z,9.69
2024-03-16T01:11:30.822Z,9.34
2024-03-16T01:13:02.542Z,9.16
2024-03-16T01:14:34.379Z,9.24
2024-03-16T01:16:06.212Z,9.29
2024-03-16T01:17:38.493Z,9.42
2024-03-16T01:19:10.190Z,9.40
2024-03-16T01:20:45.294Z,9.52
2024-03-16T01:22:16.916Z,9.47
2024-03-16T01:23:48.620Z,9.26
2024-03-16T01:25:20.787Z,9.33
2024-03-16T01:26:52.517Z,9.40
2024-03-16T01:28:24.202Z,9.35
2024-03-16T01:29:55.840Z,9.42
2024-03-16T01:31:27.681Z,9.23
2024-03-16T01:32:59.312Z,9.02
2024-03-16T01:34:31.032Z,9.04
2024-03-16T01:36:04.487Z,9.23
2024-03-16T01:37:36.095Z,9.10
2024-03-16T01:39:08.048Z,9.21
2024-03-16T01:40:39.755Z,9.34
2024-03-16T01:42:11.440Z,9.10
2024-03-16T01:43:47.400Z,9.24
2024-03-16T01:45:19.387Z,9.12
2024-03-16T01:46:50.992Z,9.10
2024-03-16T01:48:22.587Z,8.75
2024-03-16T01:49:54.178Z,8.80
2024-03-16T01:51:25.817Z,8.78
2024-03-16T01:52:58.213Z,8.82
2024-03-16T01:54:29.945Z,8.83
2024-03-16T01:56:01.677Z,8.86
2024-03-16T01:57:33.374Z,8.93
2024-03-16T01:59:05.128Z,9.03
2024-03-16T02:00:37.103Z,9.02
2024-03-16T02:02:37.394Z,8.92
2024-03-16T02:04:09.050Z,9.01
2024-03-16T02:05:42.897Z,8.82
2024-03-16T02:07:14.644Z,8.79
2024-03-16T02:08:46.434Z,8.91
2024-03-16T02:10:18.885Z,8.78
2024-03-16T02:11:51.063Z,8.92
2024-03-16T02:13:22.816Z,8.97
2024-03-16T02:14:54.438Z,8.96
2024-03-16T02:16:26.168Z,8.88
2024-03-16T02:17:57.804Z,8.77
2024-03-16T02:19:29.449Z,8.76
2024-03-16T02:21:01.097Z,8.82
2024-03-16T02:22:32.698Z,8.58
2024-03-16T02:24:04.559Z,8.84
2024-03-16T02:25:36.263Z,8.76
2024-03-16T02:27:07.981Z,8.72
2024-03-16T02:28:39.651Z,8.64
2024-03-16T02:30:12.013Z,8.64
2024-03-16T02:31:44.664Z,8.77
2024-03-16T02:33:16.714Z,8.81
2024-03-16T02:34:48.448Z,8.50
2024-03-16T02:36:20.077Z,8.56
2024-03-16T02:37:51.751Z,8.67
2024-03-16T02:39:23.376Z,8.52
2024-03-16T02:40:55.016Z,8.74
2024-03-16T02:42:26.765Z,8.54
2024-03-16T02:43:58.387Z,8.56
2024-03-16T02:45:30.289Z,8.64
2024-03-16T02:47:02.455Z,8.69
2024-03-16T02:48:34.182Z,8.77
2024-03-16T02:50:06.355Z,8.74
2024-03-16T02:51:38.286Z,8.67
2024-03-16T02:53:10.062Z,8.68
2024-03-16T02:54:41.895Z,8.56
2024-03-16T02:56:16.125Z,8.60
2024-03-16T02:57:47.798Z,8.44
2024-03-16T02:59:19.639Z,8.49
2024-03-16T03:00:51.299Z,8.42
2024-03-16T03:02:25.604Z,8.33
2024-03-16T03:03:57.531Z,8.47
2024-03-16T03:05:29.181Z,8.48
2024-03-16T03:07:00.801Z,8.56
2024-03-16T03:08:33.516Z,8.57
2024-03-16T03:10:07.853Z,8.60
2024-03-16T03:11:39.710Z,8.51
2024-03-16T03:13:11.427Z,8.46
2024-03-16T03:14:43.167Z,8.30
2024-03-16T03:16:20.445Z,8.45
2024-03-16T03:17:52.123Z,8.49
2024-03-16T03:19:24.087Z,8.67
2024-03-16T03:20:56.286Z,8.61
2024-03-16T03:22:27.982Z,8.68
2024-03-16T03:24:00.818Z,8.61
2024-03-16T03:25:34.856Z,8.58
2024-03-16T03:27:07.165Z,8.75
2024-03-16T03:28:39.059Z,8.75
2024-03-16T03:30:11.576Z,8.80
2024-03-16T03:31:43.203Z,8.85
2024-03-16T03:33:14.828Z,8.90
2024-03-16T03:34:46.461Z,8.82
2024-03-16T03:36:18.082Z,8.92
2024-03-16T03:37:49.671Z,8.95
2024-03-16T03:39:21.306Z,9.01
2024-03-16T03:40:52.934Z,9.01
2024-03-16T03:42:30.725Z,9.04
2024-03-16T03:44:10.320Z,9.02
2024-03-16T03:45:44.850Z,9.02
2024-03-16T03:47:17.186Z,9.09
2024-03-16T03:49:01.117Z,9.14
2024-03-16T03:50:39.818Z,9.16
2024-03-16T03:52:11.550Z,9.17
2024-03-16T03:53:43.225Z,9.23
2024-03-16T03:55:14.892Z,9.25
2024-03-16T03:56:46.568Z,9.34
2024-03-16T03:58:22.174Z,9.29
2024-03-16T03:59:53.790Z,9.35
2024-03-16T04:01:25.536Z,9.42
2024-03-16T04:02:57.191Z,9.39
2024-03-16T04:04:28.873Z,9.43
2024-03-16T04:06:00.497Z,9.42
2024-03-16T04:07:32.323Z,9.36
2024-03-16T04:09:04.321Z,9.35
2024-03-16T04:10:36.954Z,9.35
2024-03-16T04:12:10.483Z,9.34
2024-03-16T04:13:42.902Z,9.38
2024-03-16T04:15:15.479Z,9.42
2024-03-16T04:16:48.811Z,9.41
2024-03-16T04:18:20.513Z,9.38
2024-03-16T04:19:52.888Z,9.40
2024-03-16T04:21:24.522Z,9.45
2024-03-16T04:22:56.250Z,9.43
2024-03-16T04:24:27.981Z,9.45
2024-03-16T04:25:59.695Z,9.37
2024-03-16T04:27:31.645Z,9.37
2024-03-16T04:29:03.850Z,9.35
2024-03-16T04:30:36.108Z,9.33
2024-03-16T04:32:08.107Z,9.36
2024-03-16T04:33:39.725Z,9.42
2024-03-16T04:35:12.756Z,9.38
2024-03-16T04:36:44.435Z,9.38
2024-03-16T04:38:16.077Z,9.38
2024-03-16T04:39:49.060Z,9.42
2024-03-16T04:41:21.011Z,9.41
2024-03-16T04:42:52.792Z,9.46
2024-03-16T04:44:24.748Z,9.46
2024-03-16T04:45:56.515Z,9.52
2024-03-16T04:47:28.128Z,9.55
2024-03-16T04:49:01.161Z,9.52
2024-03-16T04:50:32.832Z,9.54
2024-03-16T04:52:04.569Z,9.58
2024-03-16T04:53:36.289Z,9.52
2024-03-16T04:55:08.347Z,9.48
2024-03-16T04:56:40.146Z,9.54
2024-03-16T04:58:12.009Z,9.59
2024-03-16T04:59:43.776Z,9.62
2024-03-16T05:01:16.507Z,9.59
2024-03-16T05:02:49.458Z,9.56
2024-03-16T05:04:21.050Z,9.53
2024-03-16T05:05:52.758Z,9.57
2024-03-16T05:07:24.395Z,9.48
2024-03-16T05:08:55.996Z,9.50
2024-03-16T05:10:27.749Z,9.60
2024-03-16T05:11:59.445Z,9.36
2024-03-16T05:13:33.441Z,9.36
2024-03-16T05:15:06.757Z,9.34
2024-03-16T05:16:40.825Z,9.31
2024-03-16T05:18:15.372Z,9.34
2024-03-16T05:19:47.825Z,9.18
2024-03-16T05:21:20.182Z,9.10
2024-03-16T05:22:51.782Z,9.17
2024-03-16T05:24:23.390Z,9.13
2024-03-16T05:25:55.107Z,9.13
2024-03-16T05:27:27.230Z,9.22
2024-03-16T05:28:59.112Z,9.15
2024-03-16T05:30:31.103Z,9.22
2024-03-16T05:32:04.390Z,9.25
2024-03-16T05:33:36.086Z,9.36
2024-03-16T05:35:09.781Z,9.40
2024-03-16T05:36:41.609Z,9.40
2024-03-16T05:38:13.263Z,9.35
2024-03-16T05:39:45.115Z,9.27
2024-03-16T05:41:17.075Z,9.24
2024-03-16T05:42:48.699Z,9.39
2024-03-16T05:44:20.298Z,9.24
2024-03-16T05:45:53.493Z,9.32
2024-03-16T05:47:25.269Z,9.27
2024-03-16T05:48:58.060Z,9.28
2024-03-16T05:50:29.756Z,9.40
2024-03-16T05:52:01.408Z,9.48
2024-03-16T05:53:33.198Z,9.25
2024-03-16T05:55:05.831Z,9.14
2024-03-16T05:56:38.636Z,8.97
2024-03-16T05:58:10.390Z,9.05
2024-03-16T05:59:42.108Z,9.07
2024-03-16T06:01:13.816Z,9.15
2024-03-16T06:02:45.463Z,9.21
2024-03-16T06:04:19.038Z,9.17
2024-03-16T06:05:50.690Z,9.29
2024-03-16T06:07:22.436Z,9.32
2024-03-16T06:08:54.171Z,9.40
2024-03-16T06:10:25.826Z,9.41
2024-03-16T06:11:57.572Z,9.33
2024-03-16T06:13:29.247Z,9.40
2024-03-16T06:15:00.898Z,9.34
2024-03-16T06:16:32.511Z,9.15
2024-03-16T06:18:04.722Z,9.17
2024-03-16T06:19:36.363Z,9.17
2024-03-16T06:21:11.042Z,9.21
2024-03-16T06:22:43.033Z,9.20
2024-03-16T06:24:14.934Z,9.21
2024-03-16T06:25:51.060Z,9.13
2024-03-16T06:27:23.576Z,9.23
2024-03-16T06:29:06.828Z,9.28
2024-03-16T06:30:38.843Z,9.25
2024-03-16T06:32:10.605Z,9.34
2024-03-16T06:33:46.857Z,9.35
2024-03-16T06:35:18.634Z,9.30
2024-03-16T06:36:53.233Z,9.22
2024-03-16T06:38:26.052Z,9.18
2024-03-16T06:39:57.958Z,9.19
2024-03-16T06:41:29.632Z,9.28
2024-03-16T06:43:01.429Z,9.39
2024-03-16T06:44:33.535Z,9.64
2024-03-16T06:46:06.877Z,9.58
2024-03-16T06:47:38.593Z,9.32
2024-03-16T06:49:10.383Z,9.37
2024-03-16T06:50:42.096Z,9.52
2024-03-16T06:52:14.107Z,9.88
2024-03-16T06:53:48.464Z,10.08
2024-03-16T06:55:20.726Z,10.31
2024-03-16T06:56:52.629Z,10.41
2024-03-16T06:58:25.736Z,10.25
2024-03-16T06:59:57.333Z,10.26
2024-03-16T07:01:29.984Z,10.15
2024-03-16T07:03:01.713Z,10.26
2024-03-16T07:04:33.411Z,10.22
2024-03-16T07:06:07.605Z,10.13
2024-03-16T07:07:39.313Z,10.13
2024-03-16T07:09:12.243Z,10.18
2024-03-16T07:10:47.514Z,10.05
2024-03-16T07:12:19.235Z,10.12
2024-03-16T07:13:50.870Z,10.12
2024-03-16T07:15:22.679Z,10.11
2024-03-16T07:16:56.083Z,10.07
2024-03-16T07:18:28.184Z,10.17
2024-03-16T07:20:07.576Z,10.13
2024-03-16T07:21:39.349Z,10.24
2024-03-16T07:23:10.981Z,10.17
2024-03-16T07:24:42.686Z,10.24
2024-03-16T07:26:14.574Z,10.21
2024-03-16T07:27:46.287Z,10.24
2024-03-16T07:29:17.969Z,10.16
2024-03-16T07:30:55.922Z,10.16
2024-03-16T07:32:27.611Z,10.20
2024-03-16T07:34:02.409Z,10.22
2024-03-16T07:35:36.630Z,10.21
2024-03-16T07:37:08.403Z,10.24
2024-03-16T07:38:40.100Z,10.22
2024-03-16T07:40:15.399Z,10.18
2024-03-16T07:41:47.161Z,10.29
2024-03-16T07:43:19.169Z,10.32
2024-03-16T07:44:50.857Z,10.49
2024-03-16T07:46:22.585Z,10.61
2024-03-16T07:47:54.327Z,11.02
2024-03-16T07:49:26.130Z,11.22
2024-03-16T07:51:01.184Z,10.89
2024-03-16T07:52:34.492Z,10.76
2024-03-16T07:54:10.092Z,10.87
2024-03-16T07:55:41.795Z,10.91
2024-03-16T07:57:13.547Z,11.13
2024-03-16T07:58:45.214Z,11.37
2024-03-16T08:00:16.918Z,11.28
2024-03-16T08:01:48.713Z,11.20
2024-03-16T08:03:20.554Z,11.43
2024-03-16T08:04:52.165Z,12.02
2024-03-16T08:06:23.855Z,13.20
2024-03-16T08:07:55.556Z,12.30
2024-03-16T08:09:27.795Z,11.96
2024-03-16T08:10:59.517Z,12.28
2024-03-16T08:12:33.456Z,12.51
2024-03-16T08:14:09.666Z,12.16
2024-03-16T08:15:41.345Z,12.30
2024-03-16T08:17:12.987Z,12.69
2024-03-16T08:18:46.300Z,12.54
2024-03-16T08:20:18.289Z,12.54
2024-03-16T08:21:50.260Z,12.33
2024-03-16T08:23:21.962Z,12.19
2024-03-16T08:24:53.727Z,12.01
2024-03-16T08:26:25.364Z,12.00
2024-03-16T08:27:58.140Z,12.17
2024-03-16T08:29:29.899Z,12.28
2024-03-16T08:31:01.878Z,12.13
2024-03-16T08:32:34.169Z,12.21
2024-03-16T08:34:05.886Z,12.02
2024-03-16T08:35:37.560Z,12.14
2024-03-16T08:37:09.213Z,12.13
2024-03-16T08:38:40.887Z,12.06
2024-03-16T08:40:17.088Z,11.93
2024-03-16T08:41:49.186Z,11.85
2024-03-16T08:43:20.978Z,11.94
2024-03-16T08:44:52.838Z,11.94
2024-03-16T08:46:27.797Z,11.92
2024-03-16T08:48:00.035Z,11.98
2024-03-16T08:49:32.486Z,12.02
2024-03-16T08:51:05.827Z,12.03
2024-03-16T08:52:38.461Z,12.25
2024-03-16T08:54:11.854Z,12.27
2024-03-16T08:55:43.722Z,12.51
2024-03-16T08:57:15.331Z,14.51
2024-03-16T08:58:47.842Z,13.45
2024-03-16T09:00:20.071Z,13.42
2024-03-16T09:01:51.861Z,13.42
2024-03-16T09:03:23.598Z,13.32
2024-03-16T09:04:58.040Z,12.76
2024-03-16T09:06:29.722Z,12.71
2024-03-16T09:08:02.216Z,12.58
2024-03-16T09:09:33.968Z,12.43
2024-03-16T09:11:05.706Z,12.33
2024-03-16T09:12:37.697Z,12.28
2024-03-16T09:14:09.667Z,12.28
2024-03-16T09:15:41.380Z,11.98
2024-03-16T09:17:13.042Z,11.85
2024-03-16T09:18:46.235Z,11.82
2024-03-16T09:20:18.034Z,11.80
2024-03-16T09:21:50.429Z,11.85
2024-03-16T09:23:22.129Z,11.92
2024-03-16T09:24:53.889Z,11.96
2024-03-16T09:26:25.741Z,11.86
2024-03-16T09:27:57.390Z,11.63
2024-03-16T09:29:29.377Z,11.70
2024-03-16T09:31:05.369Z,11.60
2024-03-16T09:32:38.213Z,11.65
2024-03-16T09:34:11.234Z,11.55
2024-03-16T09:35:43.412Z,11.60
2024-03-16T09:37:15.731Z,11.30
2024-03-16T09:38:48.678Z,11.29
2024-03-16T09:40:20.558Z,11.38
2024-03-16T09:41:52.275Z,11.26
